createdAt,value
2018-04-30T00:01:53.924Z,86.80
2018-04-30T00:04:21.412Z,87.10
2018-04-30T00:06:48.856Z,87.60
2018-04-30T00:09:17.239Z,87.90
2018-04-30T00:11:44.708Z,88.20
2018-04-30T00:14:12.161Z,88.60
2018-04-30T00:16:39.614Z,88.90
2018-04-30T00:19:07.051Z,89.10
2018-04-30T00:21:34.510Z,89.10
2018-04-30T00:24:01.978Z,89.30
2018-04-30T00:26:29.430Z,89.00
2018-04-30T00:28:57.244Z,88.30
2018-04-30T00:31:24.870Z,88.40
2018-04-30T00:33:53.084Z,87.30
2018-04-30T00:36:20.535Z,87.10
2018-04-30T00:38:48.313Z,86.60
2018-04-30T00:41:15.823Z,85.60
2018-04-30T00:43:43.252Z,84.10
2018-04-30T00:46:10.695Z,83.50
2018-04-30T00:48:38.140Z,83.50
2018-04-30T00:51:05.701Z,83.50
2018-04-30T00:53:33.170Z,83.50
2018-04-30T00:56:00.623Z,83.60
2018-04-30T00:58:28.116Z,83.50
2018-04-30T01:00:55.564Z,83.70
2018-04-30T01:03:23.054Z,83.90
2018-04-30T01:05:50.803Z,84.00
2018-04-30T01:08:18.253Z,84.60
2018-04-30T01:10:45.689Z,85.60
2018-04-30T01:13:13.152Z,85.90
2018-04-30T01:15:40.590Z,86.10
2018-04-30T01:18:08.121Z,85.80
2018-04-30T01:20:35.575Z,84.80
2018-04-30T01:23:03.049Z,85.30
2018-04-30T01:25:30.479Z,84.60
2018-04-30T01:27:58.045Z,84.40
2018-04-30T01:30:28.049Z,84.50
2018-04-30T01:32:55.429Z,84.70
2018-04-30T01:35:23.044Z,84.60
2018-04-30T01:37:50.489Z,85.00
2018-04-30T01:40:17.964Z,85.00
2018-04-30T01:42:45.800Z,85.20
2018-04-30T01:45:13.237Z,85.60
2018-04-30T01:47:40.679Z,85.70
2018-04-30T01:50:08.131Z,85.60
2018-04-30T01:52:35.576Z,85.50
2018-04-30T01:55:03.149Z,85.80
2018-04-30T01:57:30.605Z,85.70
2018-04-30T01:59:58.116Z,85.50
2018-04-30T02:02:25.560Z,85.10
2018-04-30T02:04:52.995Z,84.90
2018-04-30T02:07:20.448Z,84.70
2018-04-30T02:09:47.878Z,84.50
2018-04-30T02:12:15.353Z,84.60
2018-04-30T02:14:44.034Z,85.00
2018-04-30T02:17:11.450Z,85.10
2018-04-30T02:19:38.967Z,85.00
2018-04-30T02:22:06.426Z,85.10
2018-04-30T02:24:33.891Z,84.70
2018-04-30T02:27:02.239Z,85.00
2018-04-30T02:29:29.680Z,84.90
2018-04-30T02:31:57.170Z,85.00
2018-04-30T02:34:24.612Z,84.90
2018-04-30T02:36:52.096Z,84.00
2018-04-30T02:39:19.532Z,83.40
2018-04-30T02:41:47.826Z,82.80
2018-04-30T02:44:15.275Z,82.50
2018-04-30T02:46:42.719Z,82.20
2018-04-30T02:49:11.088Z,82.30
2018-04-30T02:51:38.554Z,82.40
2018-04-30T02:54:06.757Z,81.80
2018-04-30T02:56:34.407Z,81.70
2018-04-30T02:59:01.848Z,81.20
2018-04-30T03:01:30.814Z,81.40
2018-04-30T03:03:58.248Z,81.30
2018-04-30T03:06:25.691Z,81.40
2018-04-30T03:08:53.140Z,81.20
2018-04-30T03:11:20.982Z,81.50
2018-04-30T03:13:48.435Z,81.80
2018-04-30T03:16:15.878Z,82.10
2018-04-30T03:18:43.316Z,82.70
2018-04-30T03:21:11.443Z,83.10
2018-04-30T03:23:39.038Z,83.40
2018-04-30T03:26:06.478Z,83.60
2018-04-30T03:28:33.916Z,83.90
2018-04-30T03:31:01.356Z,84.00
2018-04-30T03:33:28.794Z,84.00
2018-04-30T03:35:56.235Z,84.00
2018-04-30T03:38:23.888Z,83.50
2018-04-30T03:40:52.103Z,83.60
2018-04-30T03:43:20.020Z,84.00
2018-04-30T03:45:48.340Z,84.00
2018-04-30T03:48:15.773Z,84.30
2018-04-30T03:50:43.223Z,84.40
2018-04-30T03:53:10.780Z,84.60
2018-04-30T03:55:38.243Z,84.70
2018-04-30T03:58:05.709Z,84.70
2018-04-30T04:00:44.872Z,84.90
2018-04-30T04:03:24.138Z,85.30
2018-04-30T04:06:15.319Z,85.50
2018-04-30T04:08:42.776Z,85.80
2018-04-30T04:11:10.229Z,86.10
2018-04-30T04:13:37.687Z,86.60
2018-04-30T04:16:05.128Z,86.90
2018-04-30T04:18:32.576Z,87.10
2018-04-30T04:21:00.286Z,87.20
2018-04-30T04:23:27.728Z,87.10
2018-04-30T04:25:55.212Z,87.00
2018-04-30T04:28:22.647Z,87.10
2018-04-30T04:30:50.092Z,87.20
2018-04-30T04:33:17.584Z,87.50
2018-04-30T04:35:45.123Z,88.30
2018-04-30T04:38:12.586Z,89.30
2018-04-30T04:40:40.046Z,89.80
2018-04-30T04:43:07.528Z,90.00
2018-04-30T04:45:34.983Z,90.10
2018-04-30T04:48:03.283Z,90.00
2018-04-30T04:50:30.735Z,90.30
2018-04-30T04:52:58.214Z,90.70
2018-04-30T04:55:25.655Z,91.60
2018-04-30T04:57:53.518Z,92.40
2018-04-30T05:00:20.961Z,93.10
2018-04-30T05:02:48.433Z,93.70
2018-04-30T05:05:15.892Z,93.80
2018-04-30T05:07:43.339Z,94.30
2018-04-30T05:10:10.780Z,94.40
2018-04-30T05:12:38.242Z,94.50
2018-04-30T05:15:05.695Z,94.70
2018-04-30T05:17:33.282Z,94.80
2018-04-30T05:20:01.019Z,94.70
2018-04-30T05:22:28.571Z,94.60
2018-04-30T05:24:56.023Z,94.60
2018-04-30T05:27:23.804Z,94.20
2018-04-30T05:29:51.728Z,94.20
2018-04-30T05:32:22.083Z,94.20
2018-04-30T05:34:49.564Z,94.20
2018-04-30T05:37:17.639Z,93.80
2018-04-30T05:39:45.076Z,93.70
2018-04-30T05:42:12.517Z,93.80
2018-04-30T05:44:40.011Z,93.20
2018-04-30T05:47:07.482Z,93.10
2018-04-30T05:49:35.793Z,92.90
2018-04-30T05:52:03.803Z,92.60
2018-04-30T05:54:31.290Z,92.30
2018-04-30T05:56:58.731Z,92.10
2018-04-30T05:59:26.207Z,91.90
2018-04-30T06:01:53.645Z,91.60
2018-04-30T06:04:21.101Z,91.30
2018-04-30T06:06:48.615Z,91.10
2018-04-30T06:09:16.033Z,90.70
2018-04-30T06:11:43.584Z,90.50
2018-04-30T06:14:11.778Z,90.10
2018-04-30T06:16:39.620Z,90.00
2018-04-30T06:19:07.088Z,89.10
2018-04-30T06:21:34.552Z,88.60
2018-04-30T06:24:02.232Z,88.40
2018-04-30T06:26:29.675Z,87.50
2018-04-30T06:28:57.771Z,86.70
2018-04-30T06:31:25.233Z,87.30
2018-04-30T06:33:52.668Z,87.90
2018-04-30T06:36:20.120Z,87.00
2018-04-30T06:38:47.579Z,87.20
2018-04-30T06:41:15.381Z,86.60
2018-04-30T06:43:42.816Z,86.90
2018-04-30T06:46:10.487Z,86.80
2018-04-30T06:48:38.043Z,86.10
2018-04-30T06:51:05.486Z,86.60
2018-04-30T06:53:33.782Z,85.80
2018-04-30T06:56:01.169Z,85.60
2018-04-30T06:58:28.606Z,84.70
2018-04-30T07:00:56.822Z,85.40
2018-04-30T07:03:24.791Z,85.30
2018-04-30T07:05:52.480Z,84.60
2018-04-30T07:08:19.951Z,84.10
2018-04-30T07:10:47.849Z,83.90
2018-04-30T07:13:15.688Z,84.30
2018-04-30T07:15:43.123Z,83.60
2018-04-30T07:18:10.651Z,83.20
2018-04-30T07:20:38.101Z,83.90
2018-04-30T07:23:05.542Z,84.10
2018-04-30T07:25:33.228Z,83.40
2018-04-30T07:28:00.872Z,83.00
2018-04-30T07:30:28.597Z,82.80
2018-04-30T07:32:56.316Z,82.80
2018-04-30T07:35:23.754Z,82.90
2018-04-30T07:37:51.224Z,82.10
2018-04-30T07:40:18.684Z,82.10
2018-04-30T07:42:46.141Z,80.10
2018-04-30T07:45:13.587Z,79.90
2018-04-30T07:47:41.441Z,78.30
2018-04-30T07:50:09.388Z,78.20
2018-04-30T07:52:36.784Z,78.90
2018-04-30T07:55:04.236Z,78.60
2018-04-30T07:57:31.684Z,77.90
2018-04-30T07:59:59.124Z,78.80
2018-04-30T08:02:26.603Z,78.00
2018-04-30T08:04:54.324Z,78.00
2018-04-30T08:07:22.000Z,78.80
2018-04-30T08:09:49.615Z,79.00
2018-04-30T08:12:17.842Z,79.60
2018-04-30T08:14:45.619Z,79.40
2018-04-30T08:17:13.296Z,79.10
2018-04-30T08:19:42.364Z,79.40
2018-04-30T08:22:09.800Z,79.30
2018-04-30T08:24:37.255Z,79.10
2018-04-30T08:27:04.691Z,77.80
2018-04-30T08:29:32.904Z,76.60
2018-04-30T08:32:00.352Z,76.50
2018-04-30T08:34:27.784Z,76.40
2018-04-30T08:36:55.763Z,75.00
2018-04-30T08:39:23.874Z,74.10
2018-04-30T08:41:51.394Z,74.30
2018-04-30T08:44:19.232Z,72.80
2018-04-30T08:46:46.702Z,71.80
2018-04-30T08:49:14.151Z,71.90
2018-04-30T08:51:41.697Z,71.40
2018-04-30T08:54:09.516Z,71.50
2018-04-30T08:56:36.968Z,71.30
2018-04-30T08:59:04.404Z,71.10
2018-04-30T09:01:31.864Z,72.00
2018-04-30T09:03:59.310Z,70.80
2018-04-30T09:06:26.869Z,71.10
2018-04-30T09:08:54.313Z,71.60
2018-04-30T09:11:21.769Z,71.40
2018-04-30T09:13:49.192Z,70.90
2018-04-30T09:16:17.475Z,70.00
2018-04-30T09:18:44.989Z,68.40
2018-04-30T09:21:12.519Z,68.60
2018-04-30T09:23:39.976Z,66.20
2018-04-30T09:26:07.796Z,65.20
2018-04-30T09:28:35.856Z,66.50
2018-04-30T09:31:03.895Z,65.70
2018-04-30T09:33:31.820Z,66.00
2018-04-30T09:36:00.100Z,66.50
2018-04-30T09:38:27.981Z,67.20
2018-04-30T09:40:55.841Z,67.90
2018-04-30T09:43:23.812Z,68.20
2018-04-30T09:45:51.916Z,67.50
2018-04-30T09:48:19.840Z,66.90
2018-04-30T09:50:47.264Z,65.80
2018-04-30T09:53:16.016Z,63.20
2018-04-30T09:55:43.862Z,62.00
2018-04-30T09:58:11.895Z,60.80
2018-04-30T10:00:39.995Z,60.00
2018-04-30T10:03:07.919Z,60.80
2018-04-30T10:05:35.935Z,61.50
2018-04-30T10:08:03.509Z,62.40
2018-04-30T10:10:31.541Z,62.80
2018-04-30T10:12:58.992Z,63.80
2018-04-30T10:15:26.927Z,64.60
2018-04-30T10:17:55.323Z,64.30
2018-04-30T10:20:22.857Z,64.20
2018-04-30T10:22:50.831Z,64.00
2018-04-30T10:25:18.366Z,61.10
2018-04-30T10:27:46.150Z,60.70
2018-04-30T10:30:13.749Z,61.50
2018-04-30T10:32:42.372Z,59.90
2018-04-30T10:35:10.172Z,59.60
2018-04-30T10:37:38.040Z,58.00
2018-04-30T10:40:05.974Z,57.50
2018-04-30T10:42:34.005Z,57.10
2018-04-30T10:45:02.571Z,56.80
2018-04-30T10:47:30.008Z,56.70
2018-04-30T10:49:58.092Z,56.60
2018-04-30T10:52:25.485Z,57.80
2018-04-30T10:54:54.022Z,58.10
2018-04-30T10:57:21.913Z,58.10
2018-04-30T10:59:49.896Z,58.40
2018-04-30T11:02:18.044Z,58.40
2018-04-30T11:04:45.828Z,57.20
2018-04-30T11:07:14.297Z,56.10
2018-04-30T11:09:42.614Z,54.30
2018-04-30T11:12:10.895Z,53.60
2018-04-30T11:14:38.351Z,54.20
2018-04-30T11:17:06.140Z,54.40
2018-04-30T11:19:33.985Z,55.00
2018-04-30T11:22:01.430Z,55.60
2018-04-30T11:24:28.986Z,54.30
2018-04-30T11:26:56.424Z,52.40
2018-04-30T11:29:23.859Z,49.80
2018-04-30T11:31:51.311Z,51.80
2018-04-30T11:34:18.743Z,51.30
2018-04-30T11:36:46.172Z,51.70
2018-04-30T11:39:13.759Z,50.80
2018-04-30T11:41:41.534Z,49.50
2018-04-30T11:44:09.011Z,48.70
2018-04-30T11:46:36.474Z,49.00
2018-04-30T11:49:03.914Z,50.00
2018-04-30T11:51:31.371Z,48.00
2018-04-30T11:53:58.933Z,48.10
2018-04-30T11:56:26.375Z,46.70
2018-04-30T11:58:53.813Z,43.30
2018-04-30T12:01:21.430Z,42.00
2018-04-30T12:03:48.881Z,40.80
2018-04-30T12:06:16.323Z,40.80
2018-04-30T12:08:43.767Z,40.20
2018-04-30T12:11:11.963Z,40.50
2018-04-30T12:13:39.407Z,40.40
2018-04-30T12:16:07.229Z,40.70
2018-04-30T12:18:34.683Z,41.40
2018-04-30T12:21:02.120Z,41.00
2018-04-30T12:23:29.624Z,41.60
2018-04-30T12:25:57.079Z,43.20
2018-04-30T12:28:24.507Z,41.50
2018-04-30T12:30:52.107Z,40.50
2018-04-30T12:33:19.544Z,42.20
2018-04-30T12:35:47.332Z,40.90
2018-04-30T12:38:14.824Z,42.40
2018-04-30T12:40:42.265Z,44.00
2018-04-30T12:43:09.713Z,43.10
2018-04-30T12:45:37.144Z,42.30
2018-04-30T12:48:04.577Z,42.20
2018-04-30T12:50:32.032Z,41.30
2018-04-30T12:52:59.460Z,41.80
2018-04-30T12:55:26.896Z,41.40
2018-04-30T12:57:54.351Z,42.20
2018-04-30T13:00:21.963Z,42.30
2018-04-30T13:02:49.491Z,43.50
2018-04-30T13:05:16.919Z,44.10
2018-04-30T13:07:44.359Z,45.20
2018-04-30T13:10:11.803Z,45.10
2018-04-30T13:12:39.235Z,44.90
2018-04-30T13:15:06.808Z,44.00
2018-04-30T13:17:34.246Z,43.10
2018-04-30T13:20:01.711Z,42.20
2018-04-30T13:22:29.157Z,42.50
2018-04-30T13:24:56.591Z,42.00
2018-04-30T13:27:24.042Z,42.80
2018-04-30T13:29:51.471Z,43.80
2018-04-30T13:32:18.925Z,45.00
2018-04-30T13:34:46.372Z,45.20
2018-04-30T13:37:14.036Z,46.20
2018-04-30T13:39:41.436Z,46.10
2018-04-30T13:42:08.871Z,46.10
2018-04-30T13:44:36.353Z,45.90
2018-04-30T13:47:03.792Z,47.10
2018-04-30T13:49:31.236Z,47.60
2018-04-30T13:51:58.679Z,47.50
2018-04-30T13:54:26.618Z,48.40
2018-04-30T13:56:54.051Z,47.70
2018-04-30T13:59:21.511Z,48.50
2018-04-30T14:01:49.018Z,47.00
2018-04-30T14:04:16.385Z,43.80
2018-04-30T14:06:43.930Z,44.00
2018-04-30T14:09:11.384Z,43.60
2018-04-30T14:11:38.854Z,41.80
2018-04-30T14:14:06.280Z,42.70
2018-04-30T14:16:33.775Z,43.70
2018-04-30T14:19:01.234Z,45.70
2018-04-30T14:21:28.920Z,46.50
2018-04-30T14:23:56.346Z,47.80
2018-04-30T14:26:24.016Z,48.90
2018-04-30T14:28:51.559Z,48.60
2018-04-30T14:31:19.019Z,47.30
2018-04-30T14:33:46.461Z,47.00
2018-04-30T14:36:13.912Z,45.00
2018-04-30T14:38:41.353Z,44.10
2018-04-30T14:41:08.802Z,44.80
2018-04-30T14:43:36.231Z,45.40
2018-04-30T14:46:03.720Z,45.80
2018-04-30T14:48:31.164Z,46.50
2018-04-30T14:50:58.639Z,45.70
2018-04-30T14:53:26.093Z,45.30
2018-04-30T14:55:53.548Z,45.00
2018-04-30T14:58:20.985Z,44.50
2018-04-30T15:00:48.576Z,44.80
2018-04-30T15:03:16.008Z,43.60
2018-04-30T15:05:43.452Z,42.70
2018-04-30T15:08:11.644Z,40.00
2018-04-30T15:10:39.080Z,40.00
2018-04-30T15:13:06.619Z,38.30
2018-04-30T15:15:34.142Z,37.00
2018-04-30T15:18:01.602Z,36.50
2018-04-30T15:20:29.036Z,36.90
2018-04-30T15:22:56.468Z,37.50
2018-04-30T15:25:23.989Z,37.50
2018-04-30T15:27:51.423Z,38.30
2018-04-30T15:30:18.884Z,39.30
2018-04-30T15:32:46.372Z,39.20
2018-04-30T15:35:13.837Z,39.50
2018-04-30T15:37:41.284Z,40.30
2018-04-30T15:40:09.084Z,39.30
2018-04-30T15:42:36.564Z,40.00
2018-04-30T15:45:03.999Z,40.90
2018-04-30T15:47:31.430Z,42.70
2018-04-30T15:49:58.872Z,43.50
2018-04-30T15:52:26.311Z,43.70
2018-04-30T15:54:53.757Z,44.00
2018-04-30T15:57:21.187Z,44.00
2018-04-30T15:59:48.624Z,44.80
2018-04-30T16:02:16.257Z,45.50
2018-04-30T16:04:43.711Z,43.40
2018-04-30T16:07:11.352Z,43.40
2018-04-30T16:09:38.809Z,43.80
2018-04-30T16:12:06.277Z,44.10
2018-04-30T16:14:33.750Z,44.30
2018-04-30T16:17:01.179Z,44.80
2018-04-30T16:19:28.871Z,45.00
2018-04-30T16:21:56.351Z,45.40
2018-04-30T16:24:23.789Z,46.20
2018-04-30T16:26:51.227Z,47.20
2018-04-30T16:29:18.700Z,48.10
2018-04-30T16:31:46.156Z,48.50
2018-04-30T16:34:13.745Z,48.80
2018-04-30T16:36:41.180Z,49.70
2018-04-30T16:39:08.986Z,50.20
2018-04-30T16:41:36.437Z,50.80
2018-04-30T16:44:03.999Z,50.90
2018-04-30T16:46:31.451Z,51.30
2018-04-30T16:48:58.892Z,51.50
2018-04-30T16:51:26.352Z,51.60
2018-04-30T16:53:53.790Z,51.90
2018-04-30T16:56:21.244Z,53.50
2018-04-30T16:58:48.768Z,54.80
2018-04-30T17:01:16.209Z,55.30
2018-04-30T17:03:43.678Z,55.70
2018-04-30T17:06:11.096Z,55.50
2018-04-30T17:08:38.548Z,56.00
2018-04-30T17:11:05.979Z,56.60
2018-04-30T17:13:33.426Z,57.00
2018-04-30T17:16:00.867Z,57.30
2018-04-30T17:18:28.312Z,57.50
2018-04-30T17:20:55.765Z,57.50
2018-04-30T17:23:23.201Z,56.70
2018-04-30T17:25:50.644Z,56.90
2018-04-30T17:28:18.080Z,57.80
2018-04-30T17:30:45.516Z,57.60
2018-04-30T17:33:12.976Z,57.70
2018-04-30T17:35:40.423Z,58.20
2018-04-30T17:38:09.379Z,58.60
2018-04-30T17:40:36.830Z,58.50
2018-04-30T17:43:04.264Z,58.80
2018-04-30T17:45:31.716Z,59.10
2018-04-30T17:47:59.163Z,59.40
2018-04-30T17:50:26.617Z,59.80
2018-04-30T17:52:54.082Z,60.50
2018-04-30T17:55:21.523Z,61.20
2018-04-30T17:57:49.061Z,61.90
2018-04-30T18:00:16.477Z,62.20
2018-04-30T18:02:44.325Z,62.60
2018-04-30T18:05:11.802Z,63.10
2018-04-30T18:07:39.318Z,63.80
2018-04-30T18:10:06.748Z,64.20
2018-04-30T18:12:34.219Z,64.50
2018-04-30T18:15:01.697Z,64.70
2018-04-30T18:17:29.150Z,65.10
2018-04-30T18:19:56.783Z,65.50
2018-04-30T18:22:24.258Z,65.80
2018-04-30T18:24:51.718Z,66.30
2018-04-30T18:27:19.334Z,66.40
2018-04-30T18:29:46.777Z,66.90
2018-04-30T18:32:14.264Z,67.40
2018-04-30T18:34:41.801Z,68.10
2018-04-30T18:37:09.216Z,68.50
2018-04-30T18:39:36.672Z,68.80
2018-04-30T18:42:04.128Z,69.50
2018-04-30T18:44:31.631Z,69.70
2018-04-30T18:46:59.047Z,70.90
2018-04-30T18:49:26.491Z,70.40
2018-04-30T18:51:53.944Z,70.60
2018-04-30T18:54:21.399Z,70.80
2018-04-30T18:56:48.849Z,70.70
2018-04-30T18:59:16.339Z,70.80
2018-04-30T19:01:43.794Z,70.70
2018-04-30T19:04:11.241Z,70.80
2018-04-30T19:06:38.680Z,70.90
2018-04-30T19:09:06.128Z,71.00
2018-04-30T19:11:33.727Z,71.00
2018-04-30T19:14:01.155Z,71.00
2018-04-30T19:16:28.584Z,70.90
2018-04-30T19:18:56.037Z,71.30
2018-04-30T19:21:23.496Z,71.50
2018-04-30T19:23:50.946Z,70.80
2018-04-30T19:26:18.415Z,70.90
2018-04-30T19:28:45.852Z,71.00
2018-04-30T19:31:13.321Z,71.40
2018-04-30T19:33:40.778Z,71.60
2018-04-30T19:36:08.448Z,72.00
2018-04-30T19:38:35.879Z,72.40
2018-04-30T19:43:42.000Z,72.80
2018-04-30T19:46:09.445Z,73.10
2018-04-30T19:48:36.899Z,73.40
2018-04-30T19:51:04.345Z,73.40
2018-04-30T19:53:32.557Z,73.70
2018-04-30T19:56:00.020Z,73.70
2018-04-30T19:58:27.459Z,73.80
2018-04-30T20:00:54.920Z,74.10
2018-04-30T20:03:22.356Z,74.40
2018-04-30T20:05:49.806Z,74.40
2018-04-30T20:08:17.258Z,74.60
2018-04-30T20:10:44.782Z,74.50
2018-04-30T20:13:12.568Z,74.60
2018-04-30T20:15:40.008Z,74.70
2018-04-30T20:18:07.460Z,74.40
2018-04-30T20:20:34.913Z,73.90
2018-04-30T20:23:02.342Z,73.60
2018-04-30T20:25:29.808Z,73.30
2018-04-30T20:27:57.252Z,73.40
2018-04-30T20:30:24.699Z,72.50
2018-04-30T20:32:52.161Z,70.90
2018-04-30T20:35:19.599Z,70.80
2018-04-30T20:37:47.059Z,71.20
2018-04-30T20:40:14.677Z,70.80
2018-04-30T20:42:42.107Z,70.50
2018-04-30T20:45:09.564Z,70.50
2018-04-30T20:47:36.994Z,70.40
2018-04-30T20:50:04.453Z,70.50
2018-04-30T20:52:31.903Z,70.60
2018-04-30T20:54:59.340Z,70.80
2018-04-30T20:57:26.797Z,71.00
2018-04-30T20:59:54.248Z,71.00
2018-04-30T21:02:21.697Z,71.50
2018-04-30T21:04:49.136Z,72.00
2018-04-30T21:07:16.816Z,71.80
2018-04-30T21:09:44.264Z,71.90
2018-04-30T21:12:11.704Z,72.10
2018-04-30T21:14:39.168Z,72.50
2018-04-30T21:17:06.608Z,72.70
2018-04-30T21:19:34.064Z,73.00
2018-04-30T21:22:01.907Z,73.30
2018-04-30T21:24:29.413Z,73.70
2018-04-30T21:26:56.802Z,73.90
2018-04-30T21:29:24.256Z,74.20
2018-04-30T21:31:51.721Z,74.40
2018-04-30T21:34:19.160Z,74.50
2018-04-30T21:36:46.683Z,74.40
2018-04-30T21:39:14.128Z,74.60
2018-04-30T21:41:41.589Z,74.70
2018-04-30T21:44:09.040Z,74.80
2018-04-30T21:46:36.491Z,75.00
2018-04-30T21:49:03.928Z,74.90
2018-04-30T21:51:31.407Z,75.20
2018-04-30T21:53:58.832Z,75.20
2018-04-30T21:56:26.277Z,75.40
2018-04-30T21:58:53.722Z,75.40
2018-04-30T22:01:21.949Z,75.40
2018-04-30T22:03:49.419Z,75.40
2018-04-30T22:06:16.867Z,75.30
2018-04-30T22:08:44.322Z,75.50
2018-04-30T22:11:11.751Z,75.60
2018-04-30T22:13:39.204Z,75.60
2018-04-30T22:16:06.662Z,75.70
2018-04-30T22:18:34.087Z,75.80
2018-04-30T22:21:01.552Z,76.10
2018-04-30T22:23:28.995Z,76.10
2018-04-30T22:25:57.475Z,76.20
2018-04-30T22:28:25.018Z,76.00
2018-04-30T22:30:52.457Z,76.20
2018-04-30T22:33:19.908Z,76.40
2018-04-30T22:35:47.356Z,75.30
2018-04-30T22:38:14.806Z,74.70
2018-04-30T22:40:42.255Z,74.50
2018-04-30T22:43:09.703Z,74.40
2018-04-30T22:45:37.148Z,74.30
2018-04-30T22:48:04.588Z,74.30
2018-04-30T22:50:32.100Z,73.50
2018-04-30T22:52:59.599Z,73.20
2018-04-30T22:55:27.076Z,73.50
2018-04-30T22:57:54.508Z,73.70
2018-04-30T23:00:22.756Z,73.40
2018-04-30T23:02:50.213Z,71.10
2018-04-30T23:05:17.658Z,71.10
2018-04-30T23:07:45.860Z,70.00
2018-04-30T23:10:13.284Z,70.00
2018-04-30T23:12:41.488Z,69.50
2018-04-30T23:15:08.934Z,69.50
2018-04-30T23:17:36.363Z,70.70
2018-04-30T23:20:03.796Z,71.60
2018-04-30T23:22:37.072Z,71.60
2018-04-30T23:25:05.306Z,71.90
2018-04-30T23:27:32.749Z,71.70
2018-04-30T23:30:00.212Z,72.30
2018-04-30T23:32:27.671Z,72.70
2018-04-30T23:34:55.100Z,73.10
2018-04-30T23:37:22.547Z,73.70
2018-04-30T23:39:49.989Z,73.90
2018-04-30T23:42:17.425Z,74.20
2018-04-30T23:44:44.871Z,74.60
2018-04-30T23:47:12.308Z,74.90
2018-04-30T23:49:39.731Z,75.20
2018-04-30T23:52:07.185Z,75.10
2018-04-30T23:54:34.751Z,75.40
2018-04-30T23:57:02.197Z,75.40
2018-04-30T23:59:29.643Z,75.40
